Terminal Aerodrome Forecast
Issued by NWS Sterling, VA

Current Version | Previous Version | Text Only | Print | Product List | Glossary Off
Versions: 1 2 3 4 5 6 7 8 9 10 11 12 13 14 15 16 17 18 19 20 21 22 23 24 25 26 27 28

000
FTUS41 KLWX 011739
TAFDCA
TAF
KDCA 011739Z 0118/0218 29014G21KT P6SM SCT040
     FM012300 30010KT P6SM FEW250
     FM020400 27006KT P6SM FEW250
     FM021500 28011G20KT P6SM SCT200=

USA.gov is the U.S. government's official web portal to all federal, state and local government web resources and services.